sensor_id;sensor_type;location;lat;lon;timestamp;P1;durP1;ratioP1;P2;durP2;ratioP2
76373;SDS011;65197;50.164;8.012;2023-12-20T00:01:00;1.67;;;0.90;;
76373;SDS011;65197;50.164;8.012;2023-12-20T00:03:25;1.42;;;0.90;;
76373;SDS011;65197;50.164;8.012;2023-12-20T00:05:51;1.20;;;0.90;;
76373;SDS011;65197;50.164;8.012;2023-12-20T00:08:16;1.10;;;0.70;;
76373;SDS011;65197;50.164;8.012;2023-12-20T00:10:43;2.55;;;0.90;;
76373;SDS011;65197;50.164;8.012;2023-12-20T00:13:08;2.10;;;1.10;;
76373;SDS011;65197;50.164;8.012;2023-12-20T00:15:34;1.40;;;0.90;;
76373;SDS011;65197;50.164;8.012;2023-12-20T00:18:00;1.52;;;0.80;;
76373;SDS011;65197;50.164;8.012;2023-12-20T00:20:26;1.50;;;0.82;;
76373;SDS011;65197;50.164;8.012;2023-12-20T00:22:51;1.10;;;0.82;;
76373;SDS011;65197;50.164;8.012;2023-12-20T00:25:17;1.58;;;0.90;;
76373;SDS011;65197;50.164;8.012;2023-12-20T00:27:42;1.85;;;1.02;;
76373;SDS011;65197;50.164;8.012;2023-12-20T00:30:08;1.80;;;1.10;;
76373;SDS011;65197;50.164;8.012;2023-12-20T00:32:34;2.13;;;1.13;;
76373;SDS011;65197;50.164;8.012;2023-12-20T00:35:00;2.00;;;1.30;;
76373;SDS011;65197;50.164;8.012;2023-12-20T00:37:26;1.75;;;1.05;;
76373;SDS011;65197;50.164;8.012;2023-12-20T00:39:51;2.65;;;1.10;;
76373;SDS011;65197;50.164;8.012;2023-12-20T00:42:17;1.98;;;1.25;;
76373;SDS011;65197;50.164;8.012;2023-12-20T00:44:42;1.80;;;1.17;;
76373;SDS011;65197;50.164;8.012;2023-12-20T00:47:07;1.60;;;1.00;;
76373;SDS011;65197;50.164;8.012;2023-12-20T00:49:33;1.95;;;1.23;;
76373;SDS011;65197;50.164;8.012;2023-12-20T00:51:58;2.15;;;1.40;;
76373;SDS011;65197;50.164;8.012;2023-12-20T00:54:23;1.98;;;1.20;;
76373;SDS011;65197;50.164;8.012;2023-12-20T00:56:49;2.80;;;1.52;;
76373;SDS011;65197;50.164;8.012;2023-12-20T00:59:16;2.20;;;1.40;;
76373;SDS011;65197;50.164;8.012;2023-12-20T01:01:41;2.95;;;1.58;;
76373;SDS011;65197;50.164;8.012;2023-12-20T01:04:07;2.83;;;1.50;;
76373;SDS011;65197;50.164;8.012;2023-12-20T01:06:32;3.30;;;1.80;;
76373;SDS011;65197;50.164;8.012;2023-12-20T01:08:58;2.83;;;1.75;;
76373;SDS011;65197;50.164;8.012;2023-12-20T01:11:23;3.42;;;1.90;;
76373;SDS011;65197;50.164;8.012;2023-12-20T01:13:48;2.72;;;1.70;;
76373;SDS011;65197;50.164;8.012;2023-12-20T01:16:14;3.65;;;2.20;;
76373;SDS011;65197;50.164;8.012;2023-12-20T01:18:39;3.17;;;1.92;;
76373;SDS011;65197;50.164;8.012;2023-12-20T01:21:05;3.90;;;2.05;;
76373;SDS011;65197;50.164;8.012;2023-12-20T01:23:30;3.97;;;2.30;;
76373;SDS011;65197;50.164;8.012;2023-12-20T01:25:57;3.92;;;2.20;;
76373;SDS011;65197;50.164;8.012;2023-12-20T01:28:24;4.07;;;2.67;;
76373;SDS011;65197;50.164;8.012;2023-12-20T01:30:50;3.95;;;2.40;;
76373;SDS011;65197;50.164;8.012;2023-12-20T01:33:15;5.68;;;3.10;;
76373;SDS011;65197;50.164;8.012;2023-12-20T01:35:41;6.43;;;3.15;;
76373;SDS011;65197;50.164;8.012;2023-12-20T01:38:06;4.63;;;2.67;;
76373;SDS011;65197;50.164;8.012;2023-12-20T01:40:32;5.30;;;2.92;;
76373;SDS011;65197;50.164;8.012;2023-12-20T01:43:18;4.70;;;2.83;;
76373;SDS011;65197;50.164;8.012;2023-12-20T01:45:43;5.05;;;2.83;;
76373;SDS011;65197;50.164;8.012;2023-12-20T01:48:08;4.78;;;2.95;;
76373;SDS011;65197;50.164;8.012;2023-12-20T01:50:35;17.73;;;3.97;;
76373;SDS011;65197;50.164;8.012;2023-12-20T01:53:02;5.50;;;3.13;;
76373;SDS011;65197;50.164;8.012;2023-12-20T01:55:31;6.55;;;2.97;;
76373;SDS011;65197;50.164;8.012;2023-12-20T01:57:58;10.85;;;3.78;;
76373;SDS011;65197;50.164;8.012;2023-12-20T02:00:24;17.52;;;3.80;;
76373;SDS011;65197;50.164;8.012;2023-12-20T02:02:53;6.18;;;3.05;;
76373;SDS011;65197;50.164;8.012;2023-12-20T02:05:20;12.70;;;3.67;;
76373;SDS011;65197;50.164;8.012;2023-12-20T02:07:48;20.25;;;4.65;;
76373;SDS011;65197;50.164;8.012;2023-12-20T02:10:13;23.27;;;4.80;;
76373;SDS011;65197;50.164;8.012;2023-12-20T02:12:39;21.77;;;4.38;;
76373;SDS011;65197;50.164;8.012;2023-12-20T02:15:05;5.50;;;3.10;;
76373;SDS011;65197;50.164;8.012;2023-12-20T02:17:31;5.80;;;3.33;;
76373;SDS011;65197;50.164;8.012;2023-12-20T02:19:57;10.27;;;4.05;;
76373;SDS011;65197;50.164;8.012;2023-12-20T02:22:23;6.78;;;3.05;;
76373;SDS011;65197;50.164;8.012;2023-12-20T02:24:48;6.90;;;3.47;;
76373;SDS011;65197;50.164;8.012;2023-12-20T02:27:13;5.72;;;3.08;;
76373;SDS011;65197;50.164;8.012;2023-12-20T02:29:42;5.63;;;3.13;;
76373;SDS011;65197;50.164;8.012;2023-12-20T02:32:07;5.80;;;3.20;;
76373;SDS011;65197;50.164;8.012;2023-12-20T02:34:33;6.07;;;2.90;;
76373;SDS011;65197;50.164;8.012;2023-12-20T02:36:58;5.53;;;3.13;;
76373;SDS011;65197;50.164;8.012;2023-12-20T02:39:23;7.13;;;3.20;;
76373;SDS011;65197;50.164;8.012;2023-12-20T02:41:49;8.00;;;3.30;;
76373;SDS011;65197;50.164;8.012;2023-12-20T02:44:14;7.03;;;3.60;;
76373;SDS011;65197;50.164;8.012;2023-12-20T02:46:40;5.80;;;3.50;;
76373;SDS011;65197;50.164;8.012;2023-12-20T02:49:05;7.97;;;3.88;;
76373;SDS011;65197;50.164;8.012;2023-12-20T02:51:31;7.05;;;3.42;;
76373;SDS011;65197;50.164;8.012;2023-12-20T02:53:57;11.07;;;3.70;;
76373;SDS011;65197;50.164;8.012;2023-12-20T02:56:22;3.97;;;2.33;;
76373;SDS011;65197;50.164;8.012;2023-12-20T02:58:47;8.98;;;3.13;;
76373;SDS011;65197;50.164;8.012;2023-12-20T03:01:13;7.78;;;3.08;;
76373;SDS011;65197;50.164;8.012;2023-12-20T03:03:38;7.78;;;2.85;;
76373;SDS011;65197;50.164;8.012;2023-12-20T03:06:04;7.25;;;3.25;;
76373;SDS011;65197;50.164;8.012;2023-12-20T03:08:29;8.00;;;3.25;;
76373;SDS011;65197;50.164;8.012;2023-12-20T03:10:55;7.10;;;3.78;;
76373;SDS011;65197;50.164;8.012;2023-12-20T03:13:20;6.70;;;3.38;;
76373;SDS011;65197;50.164;8.012;2023-12-20T03:15:45;6.82;;;3.35;;
76373;SDS011;65197;50.164;8.012;2023-12-20T03:18:11;7.93;;;3.42;;
76373;SDS011;65197;50.164;8.012;2023-12-20T03:20:36;6.10;;;3.50;;
76373;SDS011;65197;50.164;8.012;2023-12-20T03:23:02;6.45;;;4.00;;
76373;SDS011;65197;50.164;8.012;2023-12-20T03:25:28;6.15;;;3.35;;
76373;SDS011;65197;50.164;8.012;2023-12-20T03:27:53;7.18;;;4.05;;
76373;SDS011;65197;50.164;8.012;2023-12-20T03:30:19;7.65;;;3.75;;
76373;SDS011;65197;50.164;8.012;2023-12-20T03:32:44;9.25;;;4.55;;
76373;SDS011;65197;50.164;8.012;2023-12-20T03:35:10;9.32;;;4.47;;
76373;SDS011;65197;50.164;8.012;2023-12-20T03:37:35;11.18;;;5.45;;
76373;SDS011;65197;50.164;8.012;2023-12-20T03:40:01;10.23;;;5.45;;
76373;SDS011;65197;50.164;8.012;2023-12-20T03:42:27;10.32;;;4.95;;
76373;SDS011;65197;50.164;8.012;2023-12-20T03:44:53;10.57;;;5.25;;
76373;SDS011;65197;50.164;8.012;2023-12-20T03:47:18;8.07;;;4.18;;
76373;SDS011;65197;50.164;8.012;2023-12-20T03:49:43;10.40;;;5.47;;
76373;SDS011;65197;50.164;8.012;2023-12-20T03:52:09;22.27;;;6.88;;
76373;SDS011;65197;50.164;8.012;2023-12-20T03:54:35;36.80;;;9.00;;
76373;SDS011;65197;50.164;8.012;2023-12-20T03:57:00;113.88;;;13.00;;
76373;SDS011;65197;50.164;8.012;2023-12-20T03:59:26;116.90;;;16.75;;
76373;SDS011;65197;50.164;8.012;2023-12-20T04:01:51;12.65;;;6.38;;
76373;SDS011;65197;50.164;8.012;2023-12-20T04:04:16;11.57;;;6.03;;
76373;SDS011;65197;50.164;8.012;2023-12-20T04:06:42;10.05;;;5.68;;
76373;SDS011;65197;50.164;8.012;2023-12-20T04:09:08;9.50;;;4.32;;
76373;SDS011;65197;50.164;8.012;2023-12-20T04:11:36;11.15;;;5.20;;
76373;SDS011;65197;50.164;8.012;2023-12-20T04:14:02;9.80;;;5.63;;
76373;SDS011;65197;50.164;8.012;2023-12-20T04:16:29;12.23;;;5.43;;
76373;SDS011;65197;50.164;8.012;2023-12-20T04:18:55;8.63;;;5.38;;
76373;SDS011;65197;50.164;8.012;2023-12-20T04:21:20;9.10;;;4.45;;
76373;SDS011;65197;50.164;8.012;2023-12-20T04:23:46;7.80;;;3.40;;
76373;SDS011;65197;50.164;8.012;2023-12-20T04:26:11;3.85;;;2.55;;
76373;SDS011;65197;50.164;8.012;2023-12-20T04:28:36;6.95;;;2.92;;
76373;SDS011;65197;50.164;8.012;2023-12-20T04:31:02;6.05;;;3.03;;
76373;SDS011;65197;50.164;8.012;2023-12-20T04:33:27;6.07;;;2.95;;
76373;SDS011;65197;50.164;8.012;2023-12-20T04:35:53;6.32;;;2.50;;
76373;SDS011;65197;50.164;8.012;2023-12-20T04:38:18;6.55;;;3.10;;
76373;SDS011;65197;50.164;8.012;2023-12-20T04:40:43;5.63;;;3.20;;
76373;SDS011;65197;50.164;8.012;2023-12-20T04:43:09;7.50;;;2.40;;
76373;SDS011;65197;50.164;8.012;2023-12-20T04:45:34;8.43;;;2.63;;
76373;SDS011;65197;50.164;8.012;2023-12-20T04:48:00;6.82;;;2.20;;
76373;SDS011;65197;50.164;8.012;2023-12-20T04:50:26;8.07;;;2.88;;
76373;SDS011;65197;50.164;8.012;2023-12-20T04:52:52;4.65;;;2.40;;
76373;SDS011;65197;50.164;8.012;2023-12-20T04:55:17;7.43;;;2.50;;
76373;SDS011;65197;50.164;8.012;2023-12-20T04:57:42;7.85;;;2.50;;
76373;SDS011;65197;50.164;8.012;2023-12-20T05:00:08;5.63;;;3.05;;
76373;SDS011;65197;50.164;8.012;2023-12-20T05:02:36;6.57;;;2.90;;
76373;SDS011;65197;50.164;8.012;2023-12-20T05:05:02;5.88;;;2.42;;
76373;SDS011;65197;50.164;8.012;2023-12-20T05:07:27;9.48;;;2.97;;
76373;SDS011;65197;50.164;8.012;2023-12-20T05:09:53;8.63;;;2.50;;
76373;SDS011;65197;50.164;8.012;2023-12-20T05:12:18;8.63;;;2.70;;
76373;SDS011;65197;50.164;8.012;2023-12-20T05:14:44;4.43;;;2.40;;
76373;SDS011;65197;50.164;8.012;2023-12-20T05:17:09;5.72;;;2.75;;
76373;SDS011;65197;50.164;8.012;2023-12-20T05:19:34;4.88;;;2.13;;
76373;SDS011;65197;50.164;8.012;2023-12-20T05:22:00;10.80;;;2.58;;
76373;SDS011;65197;50.164;8.012;2023-12-20T05:24:27;6.32;;;2.50;;
76373;SDS011;65197;50.164;8.012;2023-12-20T05:26:52;6.72;;;2.85;;
76373;SDS011;65197;50.164;8.012;2023-12-20T05:29:18;7.35;;;2.47;;
76373;SDS011;65197;50.164;8.012;2023-12-20T05:31:43;6.18;;;2.30;;
76373;SDS011;65197;50.164;8.012;2023-12-20T05:34:08;5.68;;;2.28;;
76373;SDS011;65197;50.164;8.012;2023-12-20T05:36:34;8.40;;;2.83;;
76373;SDS011;65197;50.164;8.012;2023-12-20T05:39:00;6.95;;;3.42;;
76373;SDS011;65197;50.164;8.012;2023-12-20T05:41:25;10.30;;;3.15;;
76373;SDS011;65197;50.164;8.012;2023-12-20T05:43:50;5.28;;;2.80;;
76373;SDS011;65197;50.164;8.012;2023-12-20T05:46:16;8.48;;;2.95;;
76373;SDS011;65197;50.164;8.012;2023-12-20T05:48:41;8.00;;;2.92;;
76373;SDS011;65197;50.164;8.012;2023-12-20T05:51:07;8.25;;;3.08;;
76373;SDS011;65197;50.164;8.012;2023-12-20T05:53:33;11.75;;;2.75;;
76373;SDS011;65197;50.164;8.012;2023-12-20T05:55:58;6.50;;;2.50;;
76373;SDS011;65197;50.164;8.012;2023-12-20T05:58:24;6.53;;;2.92;;
76373;SDS011;65197;50.164;8.012;2023-12-20T06:00:50;6.15;;;2.70;;
76373;SDS011;65197;50.164;8.012;2023-12-20T06:03:15;6.53;;;3.00;;
76373;SDS011;65197;50.164;8.012;2023-12-20T06:05:40;6.30;;;2.65;;
76373;SDS011;65197;50.164;8.012;2023-12-20T06:08:06;8.65;;;2.65;;
76373;SDS011;65197;50.164;8.012;2023-12-20T06:10:31;5.05;;;3.20;;
76373;SDS011;65197;50.164;8.012;2023-12-20T06:12:57;6.40;;;2.90;;
76373;SDS011;65197;50.164;8.012;2023-12-20T06:15:25;6.78;;;3.00;;
76373;SDS011;65197;50.164;8.012;2023-12-20T06:17:51;7.00;;;2.92;;
76373;SDS011;65197;50.164;8.012;2023-12-20T06:20:16;8.93;;;2.97;;
76373;SDS011;65197;50.164;8.012;2023-12-20T06:22:41;6.32;;;2.72;;
76373;SDS011;65197;50.164;8.012;2023-12-20T06:25:07;8.48;;;3.03;;
76373;SDS011;65197;50.164;8.012;2023-12-20T06:27:33;4.93;;;2.25;;
76373;SDS011;65197;50.164;8.012;2023-12-20T06:29:58;5.05;;;2.40;;
76373;SDS011;65197;50.164;8.012;2023-12-20T06:32:24;8.07;;;2.60;;
76373;SDS011;65197;50.164;8.012;2023-12-20T06:34:49;7.32;;;2.92;;
76373;SDS011;65197;50.164;8.012;2023-12-20T06:37:15;8.48;;;2.78;;
76373;SDS011;65197;50.164;8.012;2023-12-20T06:39:40;10.23;;;2.88;;
76373;SDS011;65197;50.164;8.012;2023-12-20T06:42:06;10.00;;;3.28;;
76373;SDS011;65197;50.164;8.012;2023-12-20T06:44:31;7.72;;;3.13;;
76373;SDS011;65197;50.164;8.012;2023-12-20T06:46:57;7.88;;;3.15;;
76373;SDS011;65197;50.164;8.012;2023-12-20T06:49:22;5.72;;;2.70;;
76373;SDS011;65197;50.164;8.012;2023-12-20T06:51:48;9.52;;;2.53;;
76373;SDS011;65197;50.164;8.012;2023-12-20T06:54:13;11.93;;;2.72;;
76373;SDS011;65197;50.164;8.012;2023-12-20T06:56:39;6.50;;;2.45;;
76373;SDS011;65197;50.164;8.012;2023-12-20T06:59:04;5.28;;;2.42;;
76373;SDS011;65197;50.164;8.012;2023-12-20T07:01:29;7.57;;;2.95;;
76373;SDS011;65197;50.164;8.012;2023-12-20T07:03:55;7.18;;;2.78;;
76373;SDS011;65197;50.164;8.012;2023-12-20T07:06:20;8.30;;;2.70;;
76373;SDS011;65197;50.164;8.012;2023-12-20T07:08:46;6.53;;;3.00;;
76373;SDS011;65197;50.164;8.012;2023-12-20T07:11:11;9.15;;;3.00;;
76373;SDS011;65197;50.164;8.012;2023-12-20T07:13:37;8.85;;;2.72;;
76373;SDS011;65197;50.164;8.012;2023-12-20T07:16:02;10.63;;;3.10;;
76373;SDS011;65197;50.164;8.012;2023-12-20T07:18:28;6.68;;;2.55;;
76373;SDS011;65197;50.164;8.012;2023-12-20T07:20:54;8.88;;;2.70;;
76373;SDS011;65197;50.164;8.012;2023-12-20T07:23:20;4.47;;;2.20;;
76373;SDS011;65197;50.164;8.012;2023-12-20T07:25:46;9.23;;;3.42;;
76373;SDS011;65197;50.164;8.012;2023-12-20T07:28:11;9.90;;;2.55;;
76373;SDS011;65197;50.164;8.012;2023-12-20T07:30:37;8.27;;;2.80;;
76373;SDS011;65197;50.164;8.012;2023-12-20T07:33:02;7.05;;;3.03;;
76373;SDS011;65197;50.164;8.012;2023-12-20T07:35:28;9.13;;;3.40;;
76373;SDS011;65197;50.164;8.012;2023-12-20T07:37:53;9.55;;;2.70;;
76373;SDS011;65197;50.164;8.012;2023-12-20T07:40:19;8.93;;;3.30;;
76373;SDS011;65197;50.164;8.012;2023-12-20T07:42:44;10.77;;;3.28;;
76373;SDS011;65197;50.164;8.012;2023-12-20T07:45:09;8.77;;;2.97;;
76373;SDS011;65197;50.164;8.012;2023-12-20T07:47:36;9.77;;;3.00;;
76373;SDS011;65197;50.164;8.012;2023-12-20T07:50:01;5.85;;;2.80;;
76373;SDS011;65197;50.164;8.012;2023-12-20T07:52:27;10.15;;;2.80;;
76373;SDS011;65197;50.164;8.012;2023-12-20T07:54:54;8.70;;;3.28;;
76373;SDS011;65197;50.164;8.012;2023-12-20T07:57:19;4.53;;;2.65;;
76373;SDS011;65197;50.164;8.012;2023-12-20T07:59:45;5.25;;;2.50;;
76373;SDS011;65197;50.164;8.012;2023-12-20T08:02:10;6.47;;;2.38;;
76373;SDS011;65197;50.164;8.012;2023-12-20T08:04:35;10.82;;;2.80;;
76373;SDS011;65197;50.164;8.012;2023-12-20T08:07:01;11.50;;;3.08;;
76373;SDS011;65197;50.164;8.012;2023-12-20T08:09:27;7.82;;;2.75;;
76373;SDS011;65197;50.164;8.012;2023-12-20T08:11:52;8.90;;;2.92;;
76373;SDS011;65197;50.164;8.012;2023-12-20T08:14:17;10.05;;;2.90;;
76373;SDS011;65197;50.164;8.012;2023-12-20T08:16:43;15.80;;;2.97;;
76373;SDS011;65197;50.164;8.012;2023-12-20T08:19:08;8.80;;;3.10;;
76373;SDS011;65197;50.164;8.012;2023-12-20T08:21:34;9.82;;;3.17;;
76373;SDS011;65197;50.164;8.012;2023-12-20T08:23:59;8.93;;;2.97;;
76373;SDS011;65197;50.164;8.012;2023-12-20T08:26:25;10.93;;;3.75;;
76373;SDS011;65197;50.164;8.012;2023-12-20T08:28:51;11.85;;;3.28;;
76373;SDS011;65197;50.164;8.012;2023-12-20T08:31:17;10.18;;;3.40;;
76373;SDS011;65197;50.164;8.012;2023-12-20T08:33:43;7.28;;;2.88;;
76373;SDS011;65197;50.164;8.012;2023-12-20T08:36:09;6.78;;;2.85;;
76373;SDS011;65197;50.164;8.012;2023-12-20T08:38:35;13.35;;;3.72;;
76373;SDS011;65197;50.164;8.012;2023-12-20T08:41:00;9.57;;;3.50;;
76373;SDS011;65197;50.164;8.012;2023-12-20T08:43:27;9.48;;;3.30;;
76373;SDS011;65197;50.164;8.012;2023-12-20T08:45:53;8.77;;;2.67;;
76373;SDS011;65197;50.164;8.012;2023-12-20T08:48:19;15.02;;;3.67;;
76373;SDS011;65197;50.164;8.012;2023-12-20T08:50:44;5.65;;;2.92;;
76373;SDS011;65197;50.164;8.012;2023-12-20T08:53:10;11.20;;;3.97;;
76373;SDS011;65197;50.164;8.012;2023-12-20T08:55:35;10.82;;;3.63;;
76373;SDS011;65197;50.164;8.012;2023-12-20T08:58:00;11.95;;;3.55;;
76373;SDS011;65197;50.164;8.012;2023-12-20T09:00:26;8.27;;;3.83;;
76373;SDS011;65197;50.164;8.012;2023-12-20T09:02:52;11.00;;;3.35;;
76373;SDS011;65197;50.164;8.012;2023-12-20T09:05:19;10.27;;;3.70;;
76373;SDS011;65197;50.164;8.012;2023-12-20T09:07:44;12.63;;;3.80;;
76373;SDS011;65197;50.164;8.012;2023-12-20T09:10:10;11.93;;;3.50;;
76373;SDS011;65197;50.164;8.012;2023-12-20T09:12:35;7.78;;;3.25;;
76373;SDS011;65197;50.164;8.012;2023-12-20T09:15:04;9.10;;;3.42;;
76373;SDS011;65197;50.164;8.012;2023-12-20T09:17:30;8.48;;;3.50;;
76373;SDS011;65197;50.164;8.012;2023-12-20T09:19:56;11.02;;;4.00;;
76373;SDS011;65197;50.164;8.012;2023-12-20T09:22:21;9.20;;;3.67;;
76373;SDS011;65197;50.164;8.012;2023-12-20T09:24:46;8.73;;;3.40;;
76373;SDS011;65197;50.164;8.012;2023-12-20T09:27:12;10.38;;;3.53;;
76373;SDS011;65197;50.164;8.012;2023-12-20T09:29:37;13.43;;;3.70;;
76373;SDS011;65197;50.164;8.012;2023-12-20T09:32:03;8.85;;;3.30;;
76373;SDS011;65197;50.164;8.012;2023-12-20T09:34:28;11.43;;;3.53;;
76373;SDS011;65197;50.164;8.012;2023-12-20T09:36:54;11.23;;;4.00;;
76373;SDS011;65197;50.164;8.012;2023-12-20T09:39:20;8.82;;;4.05;;
76373;SDS011;65197;50.164;8.012;2023-12-20T09:41:52;9.02;;;3.38;;
76373;SDS011;65197;50.164;8.012;2023-12-20T09:44:26;10.73;;;4.30;;
76373;SDS011;65197;50.164;8.012;2023-12-20T09:46:51;9.60;;;3.50;;
76373;SDS011;65197;50.164;8.012;2023-12-20T09:49:19;11.90;;;3.25;;
76373;SDS011;65197;50.164;8.012;2023-12-20T09:51:46;8.20;;;3.53;;
76373;SDS011;65197;50.164;8.012;2023-12-20T09:54:13;15.48;;;4.00;;
76373;SDS011;65197;50.164;8.012;2023-12-20T09:56:39;8.55;;;3.47;;
76373;SDS011;65197;50.164;8.012;2023-12-20T09:59:04;13.45;;;4.25;;
76373;SDS011;65197;50.164;8.012;2023-12-20T10:01:30;10.80;;;3.92;;
76373;SDS011;65197;50.164;8.012;2023-12-20T10:03:56;11.07;;;4.03;;
76373;SDS011;65197;50.164;8.012;2023-12-20T10:06:23;11.95;;;3.83;;
76373;SDS011;65197;50.164;8.012;2023-12-20T10:08:49;8.63;;;3.78;;
76373;SDS011;65197;50.164;8.012;2023-12-20T10:11:14;7.10;;;3.50;;
76373;SDS011;65197;50.164;8.012;2023-12-20T10:13:40;10.38;;;3.60;;
76373;SDS011;65197;50.164;8.012;2023-12-20T10:16:06;9.65;;;3.72;;
76373;SDS011;65197;50.164;8.012;2023-12-20T10:18:32;7.00;;;3.40;;
76373;SDS011;65197;50.164;8.012;2023-12-20T10:20:58;21.13;;;12.68;;
76373;SDS011;65197;50.164;8.012;2023-12-20T10:23:23;8.90;;;4.75;;
76373;SDS011;65197;50.164;8.012;2023-12-20T10:25:58;15.23;;;6.70;;
76373;SDS011;65197;50.164;8.012;2023-12-20T10:28:25;10.70;;;4.97;;
76373;SDS011;65197;50.164;8.012;2023-12-20T10:30:53;11.02;;;6.50;;
76373;SDS011;65197;50.164;8.012;2023-12-20T10:33:26;12.15;;;8.88;;
76373;SDS011;65197;50.164;8.012;2023-12-20T10:35:53;9.50;;;4.38;;
76373;SDS011;65197;50.164;8.012;2023-12-20T10:38:19;15.80;;;8.48;;
76373;SDS011;65197;50.164;8.012;2023-12-20T10:40:45;7.45;;;3.17;;
76373;SDS011;65197;50.164;8.012;2023-12-20T10:43:11;10.13;;;3.65;;
76373;SDS011;65197;50.164;8.012;2023-12-20T10:45:36;6.80;;;2.67;;
76373;SDS011;65197;50.164;8.012;2023-12-20T10:48:02;8.85;;;3.30;;
76373;SDS011;65197;50.164;8.012;2023-12-20T10:50:28;6.28;;;2.70;;
76373;SDS011;65197;50.164;8.012;2023-12-20T10:52:55;9.52;;;2.92;;
76373;SDS011;65197;50.164;8.012;2023-12-20T10:55:23;6.50;;;2.83;;
76373;SDS011;65197;50.164;8.012;2023-12-20T10:58:06;5.97;;;2.80;;
76373;SDS011;65197;50.164;8.012;2023-12-20T11:00:35;9.40;;;3.42;;
76373;SDS011;65197;50.164;8.012;2023-12-20T11:03:08;8.60;;;3.28;;
76373;SDS011;65197;50.164;8.012;2023-12-20T11:08:21;6.82;;;2.85;;
76373;SDS011;65197;50.164;8.012;2023-12-20T11:10:58;8.27;;;3.00;;
76373;SDS011;65197;50.164;8.012;2023-12-20T11:13:34;8.88;;;3.20;;
76373;SDS011;65197;50.164;8.012;2023-12-20T11:16:04;7.30;;;3.58;;
76373;SDS011;65197;50.164;8.012;2023-12-20T11:18:30;7.45;;;3.58;;
76373;SDS011;65197;50.164;8.012;2023-12-20T11:21:00;10.18;;;2.90;;
76373;SDS011;65197;50.164;8.012;2023-12-20T11:23:32;6.38;;;3.03;;
76373;SDS011;65197;50.164;8.012;2023-12-20T11:28:26;7.75;;;2.70;;
76373;SDS011;65197;50.164;8.012;2023-12-20T11:30:56;9.55;;;2.85;;
76373;SDS011;65197;50.164;8.012;2023-12-20T11:33:30;7.05;;;3.35;;
76373;SDS011;65197;50.164;8.012;2023-12-20T11:36:00;10.00;;;3.10;;
76373;SDS011;65197;50.164;8.012;2023-12-20T11:38:27;6.45;;;2.65;;
76373;SDS011;65197;50.164;8.012;2023-12-20T11:40:53;5.38;;;2.65;;
76373;SDS011;65197;50.164;8.012;2023-12-20T11:43:29;7.57;;;2.58;;
76373;SDS011;65197;50.164;8.012;2023-12-20T11:45:56;4.95;;;2.35;;
76373;SDS011;65197;50.164;8.012;2023-12-20T11:48:28;7.43;;;2.58;;
76373;SDS011;65197;50.164;8.012;2023-12-20T11:50:56;5.13;;;2.85;;
76373;SDS011;65197;50.164;8.012;2023-12-20T11:53:21;9.07;;;2.35;;
76373;SDS011;65197;50.164;8.012;2023-12-20T11:55:50;8.60;;;2.80;;
76373;SDS011;65197;50.164;8.012;2023-12-20T11:58:15;8.85;;;2.70;;
76373;SDS011;65197;50.164;8.012;2023-12-20T12:00:44;7.28;;;3.13;;
76373;SDS011;65197;50.164;8.012;2023-12-20T12:03:09;7.57;;;2.67;;
76373;SDS011;65197;50.164;8.012;2023-12-20T12:05:35;7.13;;;2.55;;
76373;SDS011;65197;50.164;8.012;2023-12-20T12:08:01;9.18;;;2.50;;
76373;SDS011;65197;50.164;8.012;2023-12-20T12:10:27;4.75;;;2.30;;
76373;SDS011;65197;50.164;8.012;2023-12-20T12:12:52;4.78;;;2.28;;
76373;SDS011;65197;50.164;8.012;2023-12-20T12:15:19;9.48;;;2.50;;
76373;SDS011;65197;50.164;8.012;2023-12-20T12:17:52;7.25;;;2.78;;
76373;SDS011;65197;50.164;8.012;2023-12-20T12:20:19;4.35;;;2.95;;
76373;SDS011;65197;50.164;8.012;2023-12-20T12:22:45;5.78;;;3.10;;
76373;SDS011;65197;50.164;8.012;2023-12-20T12:25:12;6.88;;;2.88;;
76373;SDS011;65197;50.164;8.012;2023-12-20T12:27:42;8.98;;;3.00;;
76373;SDS011;65197;50.164;8.012;2023-12-20T12:30:08;4.88;;;2.72;;
76373;SDS011;65197;50.164;8.012;2023-12-20T12:32:35;6.68;;;3.88;;
76373;SDS011;65197;50.164;8.012;2023-12-20T12:35:02;11.20;;;3.28;;
76373;SDS011;65197;50.164;8.012;2023-12-20T12:37:31;7.85;;;3.30;;
76373;SDS011;65197;50.164;8.012;2023-12-20T12:39:58;7.65;;;4.07;;
76373;SDS011;65197;50.164;8.012;2023-12-20T12:42:23;5.63;;;2.88;;
76373;SDS011;65197;50.164;8.012;2023-12-20T12:44:53;9.55;;;2.92;;
76373;SDS011;65197;50.164;8.012;2023-12-20T12:47:19;6.95;;;3.17;;
76373;SDS011;65197;50.164;8.012;2023-12-20T12:49:44;8.68;;;3.45;;
76373;SDS011;65197;50.164;8.012;2023-12-20T12:52:09;11.05;;;3.25;;
76373;SDS011;65197;50.164;8.012;2023-12-20T12:54:35;7.20;;;3.30;;
76373;SDS011;65197;50.164;8.012;2023-12-20T12:57:01;6.47;;;3.95;;
76373;SDS011;65197;50.164;8.012;2023-12-20T12:59:27;7.97;;;3.47;;
76373;SDS011;65197;50.164;8.012;2023-12-20T13:01:52;10.00;;;3.78;;
76373;SDS011;65197;50.164;8.012;2023-12-20T13:04:18;10.30;;;3.88;;
76373;SDS011;65197;50.164;8.012;2023-12-20T13:06:43;8.73;;;3.50;;
76373;SDS011;65197;50.164;8.012;2023-12-20T13:09:09;7.82;;;4.00;;
76373;SDS011;65197;50.164;8.012;2023-12-20T13:11:37;9.48;;;4.20;;
76373;SDS011;65197;50.164;8.012;2023-12-20T13:14:02;9.65;;;3.88;;
76373;SDS011;65197;50.164;8.012;2023-12-20T13:16:28;9.48;;;3.58;;
76373;SDS011;65197;50.164;8.012;2023-12-20T13:18:54;7.72;;;3.78;;
76373;SDS011;65197;50.164;8.012;2023-12-20T13:21:19;5.15;;;3.17;;
76373;SDS011;65197;50.164;8.012;2023-12-20T13:23:44;10.82;;;4.38;;
76373;SDS011;65197;50.164;8.012;2023-12-20T13:26:10;8.93;;;3.40;;
76373;SDS011;65197;50.164;8.012;2023-12-20T13:28:35;8.20;;;2.92;;
76373;SDS011;65197;50.164;8.012;2023-12-20T13:31:01;7.38;;;2.60;;
76373;SDS011;65197;50.164;8.012;2023-12-20T13:33:27;8.70;;;4.13;;
76373;SDS011;65197;50.164;8.012;2023-12-20T13:35:52;7.05;;;3.20;;
76373;SDS011;65197;50.164;8.012;2023-12-20T13:38:18;6.00;;;3.30;;
76373;SDS011;65197;50.164;8.012;2023-12-20T13:40:43;8.95;;;3.13;;
76373;SDS011;65197;50.164;8.012;2023-12-20T13:43:08;8.18;;;3.30;;
76373;SDS011;65197;50.164;8.012;2023-12-20T13:45:36;7.97;;;3.25;;
76373;SDS011;65197;50.164;8.012;2023-12-20T13:48:02;6.20;;;3.33;;
76373;SDS011;65197;50.164;8.012;2023-12-20T13:50:27;8.32;;;3.70;;
76373;SDS011;65197;50.164;8.012;2023-12-20T13:52:53;7.32;;;2.78;;
76373;SDS011;65197;50.164;8.012;2023-12-20T13:55:18;9.68;;;3.22;;
76373;SDS011;65197;50.164;8.012;2023-12-20T13:57:47;5.68;;;2.50;;
76373;SDS011;65197;50.164;8.012;2023-12-20T14:00:13;8.95;;;2.65;;
76373;SDS011;65197;50.164;8.012;2023-12-20T14:02:40;4.13;;;2.45;;
76373;SDS011;65197;50.164;8.012;2023-12-20T14:05:06;5.30;;;2.83;;
76373;SDS011;65197;50.164;8.012;2023-12-20T14:07:31;8.75;;;2.90;;
76373;SDS011;65197;50.164;8.012;2023-12-20T14:09:57;9.13;;;2.55;;
76373;SDS011;65197;50.164;8.012;2023-12-20T14:12:24;5.72;;;2.50;;
76373;SDS011;65197;50.164;8.012;2023-12-20T14:14:49;4.93;;;2.20;;
76373;SDS011;65197;50.164;8.012;2023-12-20T14:17:15;3.88;;;2.00;;
76373;SDS011;65197;50.164;8.012;2023-12-20T14:19:40;10.43;;;3.08;;
76373;SDS011;65197;50.164;8.012;2023-12-20T14:22:05;11.23;;;2.60;;
76373;SDS011;65197;50.164;8.012;2023-12-20T14:24:31;5.00;;;2.13;;
76373;SDS011;65197;50.164;8.012;2023-12-20T14:26:57;7.22;;;2.53;;
76373;SDS011;65197;50.164;8.012;2023-12-20T14:29:23;8.15;;;2.55;;
76373;SDS011;65197;50.164;8.012;2023-12-20T14:31:49;6.85;;;2.58;;
76373;SDS011;65197;50.164;8.012;2023-12-20T14:34:15;8.07;;;2.50;;
76373;SDS011;65197;50.164;8.012;2023-12-20T14:36:40;7.20;;;3.10;;
76373;SDS011;65197;50.164;8.012;2023-12-20T14:39:06;6.30;;;2.40;;
76373;SDS011;65197;50.164;8.012;2023-12-20T14:41:33;8.30;;;3.40;;
76373;SDS011;65197;50.164;8.012;2023-12-20T14:43:59;7.30;;;2.63;;